Time;durP1;ratioP1;P1;durP2;ratioP2;P2;SDS_P1;SDS_P2;PMS_P1;PMS_P2;Temp;Humidity;BMP_temperature;BMP_pressure;BME280_temperature;BME280_humidity;BME280_pressure;Samples;Min_cycle;Max_cycle;Signal;HPM_P1;HPM_P2
2023/04/15 00:01:59;;;;;;;32.47;14.57;;;;;;;;;;4995065;28;20049;-62
2023/04/15 00:04:26;;;;;;;;;;;;;;;;;;4994654;28;20149;-60
2023/04/15 00:07:01;;;;;;;33.92;14.68;;;;;;;;;;5002900;28;20452;-57
2023/04/15 00:09:28;;;;;;;28.85;14.32;;;;;;;;;;5000987;28;20053;-56
2023/04/15 00:12:02;;;;;;;32.67;15.95;;;;;;;;;;5005376;28;20042;-56
2023/04/15 00:14:29;;;;;;;36.65;16.23;;;;;;;;;;4998164;28;20064;-57
2023/04/15 00:16:56;;;;;;;34.47;15.98;;;;;;;;;;5000872;28;20038;-51
2023/04/15 00:19:31;;;;;;;35.65;16.35;;;;;;;;;;4995537;28;21606;-60
2023/04/15 00:22:00;;;;;;;33.10;15.85;;;;;;;;;;4998208;28;20064;-61
2023/04/15 00:24:34;;;;;;;34.45;15.73;;;;;;;;;;4997935;28;20050;-61
2023/04/15 00:27:02;;;;;;;39.13;16.08;;;;;;;;;;4999507;28;20049;-61
2023/04/15 00:29:30;;;;;;;39.75;16.95;;;;;;;;;;4997863;28;20463;-61
2023/04/15 00:32:11;;;;;;;36.45;16.17;;;;;;;;;;5003206;28;20068;-61
2023/04/15 00:34:38;;;;;;;31.05;14.32;;;;;;;;;;5013538;28;20631;-61
2023/04/15 00:37:12;;;;;;;26.48;13.90;;;;;;;;;;5015964;28;20128;-60
2023/04/15 00:39:44;;;;;;;33.83;15.13;;;;;;;;;;5019645;28;20521;-60
2023/04/15 00:42:11;;;;;;;27.50;14.00;;;;;;;;;;5012954;28;20141;-60
2023/04/15 00:44:53;;;;;;;32.40;13.25;;;;;;;;;;5004854;28;20136;-60
2023/04/15 00:47:21;;;;;;;31.23;13.35;;;;;;;;;;5012633;28;20131;-61
2023/04/15 00:49:55;;;;;;;28.45;13.85;;;;;;;;;;5016828;28;20466;-63
2023/04/15 00:52:29;;;;;;;24.15;11.95;;;;;;;;;;5012152;28;20064;-63
2023/04/15 00:55:04;;;;;;;31.48;12.55;;;;;;;;;;5019122;28;20583;-62
2023/04/15 00:57:32;;;;;;;24.70;12.13;;;;;;;;;;5017517;28;20565;-62
2023/04/15 01:00:00;;;;;;;27.05;12.30;;;;;;;;;;5017156;28;20052;-63
2023/04/15 01:02:35;;;;;;;25.20;11.75;;;;;;;;;;5017247;28;20064;-64
2023/04/15 01:05:04;;;;;;;23.60;10.38;;;;;;;;;;5015967;28;20042;-60
2023/04/15 01:07:31;;;;;;;28.55;12.55;;;;;;;;;;5013015;28;20063;-60
2023/04/15 01:10:05;;;;;;;25.88;11.90;;;;;;;;;;5012632;28;20046;-60
2023/04/15 01:12:33;;;;;;;29.83;11.57;;;;;;;;;;5012355;28;20497;-60
2023/04/15 01:15:08;;;;;;;23.58;11.70;;;;;;;;;;5016142;28;20100;-62
2023/04/15 01:17:35;;;;;;;26.15;11.77;;;;;;;;;;5014801;28;20148;-58
2023/04/15 01:20:10;;;;;;;26.90;12.73;;;;;;;;;;5011773;28;20057;-59
2023/04/15 01:22:38;;;;;;;23.88;10.65;;;;;;;;;;5011973;28;20099;-57
2023/04/15 01:25:07;;;;;;;24.17;13.15;;;;;;;;;;5016831;28;20053;-59
2023/04/15 01:27:41;;;;;;;26.92;12.15;;;;;;;;;;5015087;28;20045;-59
2023/04/15 01:30:09;;;;;;;;;;;;;;;;;;5015952;28;20049;-58
2023/04/15 01:32:59;;;;;;;26.92;11.63;;;;;;;;;;5013943;28;19921;-59
2023/04/15 01:35:33;;;;;;;25.40;11.50;;;;;;;;;;5013463;28;20484;-59
2023/04/15 01:38:08;;;;;;;26.02;11.68;;;;;;;;;;4999414;28;20055;-60
2023/04/15 01:40:36;;;;;;;23.73;10.90;;;;;;;;;;5014059;28;20072;-59
2023/04/15 01:43:09;;;;;;;23.58;11.82;;;;;;;;;;5017196;28;20408;-55
2023/04/15 01:45:37;;;;;;;24.15;12.02;;;;;;;;;;5014859;28;20061;-54
2023/04/15 01:48:11;;;;;;;27.83;12.27;;;;;;;;;;5009227;28;20387;-52
2023/04/15 01:50:38;;;;;;;25.58;12.80;;;;;;;;;;5005938;28;20042;-54
2023/04/15 01:53:05;;;;;;;27.45;11.43;;;;;;;;;;5010798;28;20103;-50
2023/04/15 01:55:40;;;;;;;25.10;11.93;;;;;;;;;;5013758;28;20064;-53
2023/04/15 01:58:07;;;;;;;23.38;11.63;;;;;;;;;;5014199;28;20056;-53
2023/04/15 02:00:41;;;;;;;20.08;12.15;;;;;;;;;;5014069;28;20056;-58
2023/04/15 02:03:08;;;;;;;20.50;10.88;;;;;;;;;;5011923;28;20048;-58
2023/04/15 02:05:36;;;;;;;23.45;11.50;;;;;;;;;;5012280;28;20625;-58
2023/04/15 02:08:11;;;;;;;25.25;11.93;;;;;;;;;;5012579;28;20053;-58
2023/04/15 02:10:38;;;;;;;33.03;13.27;;;;;;;;;;5018013;28;20073;-58
2023/04/15 02:13:12;;;;;;;24.58;11.70;;;;;;;;;;5011317;28;20412;-56
2023/04/15 02:15:39;;;;;;;;;;;;;;;;;;5015484;28;20932;-59
2023/04/15 02:18:07;;;;;;;29.92;12.27;;;;;;;;;;5016167;28;20029;-58
2023/04/15 02:20:40;;;;;;;23.92;12.25;;;;;;;;;;5019090;28;20421;-57
2023/04/15 02:23:07;;;;;;;22.70;11.45;;;;;;;;;;5015609;28;20057;-58
2023/04/15 02:25:34;;;;;;;26.45;11.48;;;;;;;;;;5018336;28;20633;-59
2023/04/15 02:28:19;;;;;;;25.15;11.43;;;;;;;;;;5008657;28;20054;-59
2023/04/15 02:30:49;;;;;;;22.35;11.27;;;;;;;;;;5015067;28;20057;-56
2023/04/15 02:33:31;;;;;;;32.28;12.00;;;;;;;;;;5017197;28;20287;-58
2023/04/15 02:35:58;;;;;;;30.10;12.23;;;;;;;;;;5011690;28;20133;-57
2023/04/15 02:38:32;;;;;;;35.42;11.65;;;;;;;;;;5007427;28;20045;-59
2023/04/15 02:40:59;;;;;;;28.92;11.40;;;;;;;;;;5017139;28;20563;-56
2023/04/15 02:43:26;;;;;;;22.75;11.25;;;;;;;;;;5008931;28;20038;-46
2023/04/15 02:46:00;;;;;;;27.95;11.73;;;;;;;;;;5016061;28;20084;-48
2023/04/15 02:48:27;;;;;;;30.15;12.80;;;;;;;;;;5012730;28;20064;-50
2023/04/15 02:51:11;;;;;;;28.23;11.82;;;;;;;;;;5019248;28;20497;-48
2023/04/15 02:53:38;;;;;;;25.88;11.02;;;;;;;;;;5008765;28;20043;-51
2023/04/15 02:56:14;;;;;;;28.98;12.18;;;;;;;;;;5011595;28;20042;-47
2023/04/15 02:58:41;;;;;;;26.55;11.68;;;;;;;;;;5012032;28;20049;-60
2023/04/15 03:01:08;;;;;;;;;;;;;;;;;;5022170;28;20589;-61
2023/04/15 03:03:42;;;;;;;24.02;11.25;;;;;;;;;;5006605;28;19929;-60
2023/04/15 03:06:09;;;;;;;22.83;11.93;;;;;;;;;;5004546;28;20053;-60
2023/04/15 03:08:43;;;;;;;30.80;12.65;;;;;;;;;;5018832;28;20049;-62
2023/04/15 03:11:11;;;;;;;29.52;11.95;;;;;;;;;;5016773;28;20048;-63
2023/04/15 03:13:40;;;;;;;31.23;10.98;;;;;;;;;;5016757;28;20605;-62
2023/04/15 03:16:15;;;;;;;32.50;13.15;;;;;;;;;;5016301;28;22182;-62
2023/04/15 03:18:45;;;;;;;23.10;11.60;;;;;;;;;;5000859;28;20050;-62
2023/04/15 03:21:12;;;;;;;28.25;12.00;;;;;;;;;;5019075;28;20070;-62
2023/04/15 03:23:46;;;;;;;28.17;11.68;;;;;;;;;;5004440;28;20128;-62
2023/04/15 03:26:33;;;;;;;31.15;12.95;;;;;;;;;;5017300;28;20128;-55
2023/04/15 03:29:07;;;;;;;27.63;11.35;;;;;;;;;;5018133;28;20128;-55
2023/04/15 03:31:34;;;;;;;24.40;11.15;;;;;;;;;;5015244;28;20140;-56
2023/04/15 03:34:15;;;;;;;22.90;10.68;;;;;;;;;;5013868;28;20054;-55
2023/04/15 03:36:42;;;;;;;30.15;12.13;;;;;;;;;;5014261;28;20516;-54
2023/04/15 03:39:16;;;;;;;25.30;11.55;;;;;;;;;;5014737;28;20052;-52
2023/04/15 03:41:50;;;;;;;25.60;11.45;;;;;;;;;;5013779;28;20476;-57
2023/04/15 03:44:17;;;;;;;24.65;12.82;;;;;;;;;;5014075;28;20046;-58
2023/04/15 03:46:44;;;;;;;24.85;11.73;;;;;;;;;;5015007;28;20042;-57
2023/04/15 03:49:18;;;;;;;24.70;11.80;;;;;;;;;;5018758;28;20105;-58
2023/04/15 03:51:45;;;;;;;;;;;;;;;;;;5015172;28;20081;-58
2023/04/15 03:54:22;;;;;;;28.77;11.50;;;;;;;;;;5001704;28;19932;-56
2023/04/15 03:56:49;;;;;;;29.50;12.55;;;;;;;;;;5015493;28;20054;-59
2023/04/15 03:59:17;;;;;;;29.17;12.75;;;;;;;;;;5016144;28;20065;-59
2023/04/15 04:01:50;;;;;;;31.83;12.60;;;;;;;;;;5014538;28;20914;-60
2023/04/15 04:04:18;;;;;;;27.95;12.18;;;;;;;;;;5015331;28;20042;-60
2023/04/15 04:06:51;;;;;;;27.45;12.15;;;;;;;;;;5015493;28;20438;-57
2023/04/15 04:09:18;;;;;;;24.00;12.43;;;;;;;;;;5014183;28;20132;-53
2023/04/15 04:11:45;;;;;;;26.67;11.93;;;;;;;;;;5016554;28;20045;-51
2023/04/15 04:14:19;;;;;;;28.48;11.75;;;;;;;;;;5016936;28;20103;-53
2023/04/15 04:16:46;;;;;;;33.47;13.80;;;;;;;;;;5014634;28;20140;-54
2023/04/15 04:19:20;;;;;;;26.80;12.82;;;;;;;;;;5017794;28;20076;-53
2023/04/15 04:21:47;;;;;;;28.60;12.10;;;;;;;;;;5014963;28;20053;-55
2023/04/15 04:24:16;;;;;;;22.88;12.32;;;;;;;;;;5018144;28;20037;-47
2023/04/15 04:26:50;;;;;;;25.65;11.93;;;;;;;;;;5002081;28;20042;-48
2023/04/15 04:29:17;;;;;;;35.17;14.40;;;;;;;;;;5011930;28;20051;-51
2023/04/15 04:31:51;;;;;;;27.00;12.02;;;;;;;;;;5016862;28;20056;-51
2023/04/15 04:34:32;;;;;;;24.42;11.65;;;;;;;;;;5015170;28;20524;-58
2023/04/15 04:37:06;;;;;;;25.77;12.40;;;;;;;;;;5016079;28;20047;-60
2023/04/15 04:39:33;;;;;;;31.27;12.77;;;;;;;;;;5002603;28;20088;-61
2023/04/15 04:42:01;;;;;;;24.30;11.15;;;;;;;;;;5012988;28;20642;-61
2023/04/15 04:44:35;;;;;;;24.40;12.25;;;;;;;;;;5019216;28;20050;-61
2023/04/15 04:47:02;;;;;;;30.80;12.23;;;;;;;;;;5011701;28;20419;-61
2023/04/15 04:49:36;;;;;;;31.60;12.63;;;;;;;;;;5017519;28;20041;-61
2023/04/15 04:52:03;;;;;;;28.48;12.38;;;;;;;;;;5016349;28;20053;-52
2023/04/15 04:54:30;;;;;;;28.55;12.20;;;;;;;;;;5015311;28;20050;-54
2023/04/15 04:57:04;;;;;;;22.33;11.35;;;;;;;;;;5011777;28;20046;-51
2023/04/15 04:59:32;;;;;;;29.45;11.68;;;;;;;;;;5013835;28;20052;-54
2023/04/15 05:02:05;;;;;;;24.23;12.05;;;;;;;;;;5012389;28;20052;-61
2023/04/15 05:04:33;;;;;;;30.90;11.93;;;;;;;;;;5016315;28;20140;-60
2023/04/15 05:07:00;;;;;;;27.48;12.15;;;;;;;;;;5014900;28;20053;-58
2023/04/15 05:09:35;;;;;;;28.40;10.98;;;;;;;;;;5010902;28;20586;-59
2023/04/15 05:12:06;;;;;;;26.30;12.10;;;;;;;;;;5013511;28;20108;-59
2023/04/15 05:14:41;;;;;;;24.25;11.38;;;;;;;;;;5015036;28;20516;-59
2023/04/15 05:17:08;;;;;;;26.15;12.02;;;;;;;;;;5014519;28;20489;-58
2023/04/15 05:19:35;;;;;;;;;;;;;;;;;;5016297;28;20056;-56
2023/04/15 05:22:09;;;;;;;25.25;11.57;;;;;;;;;;5015340;28;19935;-62
2023/04/15 05:24:36;;;;;;;22.33;10.30;;;;;;;;;;5016503;28;20058;-61
2023/04/15 05:27:10;;;;;;;24.25;11.30;;;;;;;;;;5012445;28;20042;-61
2023/04/15 05:29:37;;;;;;;25.65;11.00;;;;;;;;;;5010717;28;20037;-61
2023/04/15 05:32:05;;;;;;;22.65;10.02;;;;;;;;;;5013500;28;20497;-61
2023/04/15 05:34:46;;;;;;;25.65;11.05;;;;;;;;;;4999359;28;20434;-63
2023/04/15 05:37:13;;;;;;;30.50;10.10;;;;;;;;;;4993166;28;20049;-63
2023/04/15 05:39:47;;;;;;;21.70;9.80;;;;;;;;;;4992910;28;20056;-62
2023/04/15 05:42:15;;;;;;;22.42;9.80;;;;;;;;;;4995565;28;20493;-62
2023/04/15 05:44:42;;;;;;;;;;;;;;;;;;4998185;28;20403;-63
2023/04/15 05:47:16;;;;;;;22.80;9.82;;;;;;;;;;5001147;28;20392;-62
2023/04/15 05:49:43;;;;;;;24.48;10.10;;;;;;;;;;4996232;28;20116;-56
2023/04/15 05:52:10;;;;;;;22.25;10.25;;;;;;;;;;4995386;28;20893;-53
2023/04/15 05:54:44;;;;;;;24.02;10.95;;;;;;;;;;4997121;28;20493;-55
2023/04/15 05:57:11;;;;;;;25.15;10.68;;;;;;;;;;4995620;28;20047;-55
2023/04/15 05:59:45;;;;;;;19.67;9.77;;;;;;;;;;4988111;28;20050;-56
2023/04/15 06:02:12;;;;;;;18.58;10.25;;;;;;;;;;4985665;28;20921;-52
2023/04/15 06:04:39;;;;;;;21.75;9.77;;;;;;;;;;4979748;28;20072;-55
2023/04/15 06:07:13;;;;;;;23.90;10.65;;;;;;;;;;4999261;28;20042;-58
2023/04/15 06:09:40;;;;;;;22.85;10.02;;;;;;;;;;4994450;28;20090;-55
2023/04/15 06:12:10;;;;;;;22.52;9.23;;;;;;;;;;5000848;28;20450;-57
2023/04/15 06:14:44;;;;;;;23.00;9.73;;;;;;;;;;4990393;28;20121;-56
2023/04/15 06:17:13;;;;;;;18.35;9.45;;;;;;;;;;4999088;28;20140;-53
2023/04/15 06:19:41;;;;;;;26.02;9.88;;;;;;;;;;4973692;28;20129;-51
2023/04/15 06:22:15;;;;;;;26.75;10.20;;;;;;;;;;4986599;28;20051;-60
2023/04/15 06:24:42;;;;;;;25.98;9.55;;;;;;;;;;4994480;28;20048;-60
2023/04/15 06:27:16;;;;;;;19.42;9.20;;;;;;;;;;4999195;28;20049;-60
2023/04/15 06:29:43;;;;;;;24.73;9.68;;;;;;;;;;4999849;28;20494;-60
2023/04/15 06:32:11;;;;;;;24.40;9.95;;;;;;;;;;4998420;28;20069;-60
2023/04/15 06:34:52;;;;;;;26.33;10.00;;;;;;;;;;5014536;28;20046;-58
2023/04/15 06:37:19;;;;;;;27.98;10.50;;;;;;;;;;5015573;28;20055;-58
2023/04/15 06:39:53;;;;;;;23.98;9.88;;;;;;;;;;5015429;28;20050;-60
2023/04/15 06:42:20;;;;;;;23.95;9.45;;;;;;;;;;5014248;28;20050;-59
2023/04/15 06:44:47;;;;;;;31.52;9.77;;;;;;;;;;5010187;28;20048;-58
2023/04/15 06:47:21;;;;;;;24.38;9.63;;;;;;;;;;5009506;28;20829;-61
2023/04/15 06:49:48;;;;;;;25.58;11.35;;;;;;;;;;5006912;28;20445;-58
2023/04/15 06:52:15;;;;;;;18.05;9.40;;;;;;;;;;5011429;28;20069;-56
2023/04/15 06:54:49;;;;;;;21.38;10.18;;;;;;;;;;4996981;28;20050;-56
2023/04/15 06:57:16;;;;;;;22.08;10.43;;;;;;;;;;5011137;28;20045;-55
2023/04/15 06:59:43;;;;;;;24.70;9.77;;;;;;;;;;5011187;28;20073;-53
2023/04/15 07:02:17;;;;;;;28.13;10.50;;;;;;;;;;5011710;28;20046;-58
2023/04/15 07:04:44;;;;;;;;;;;;;;;;;;5003315;28;20754;-60
2023/04/15 07:07:18;;;;;;;28.80;10.70;;;;;;;;;;5015426;28;19929;-60
2023/04/15 07:09:46;;;;;;;23.98;10.10;;;;;;;;;;5017191;28;20055;-60
2023/04/15 07:12:13;;;;;;;;;;;;;;;;;;5015935;28;20073;-60
2023/04/15 07:14:48;;;;;;;18.77;9.57;;;;;;;;;;5014905;28;19929;-60
2023/04/15 07:17:15;;;;;;;30.85;10.80;;;;;;;;;;5014318;28;20060;-60
2023/04/15 07:19:49;;;;;;;21.15;9.80;;;;;;;;;;5018925;28;20056;-60
2023/04/15 07:22:16;;;;;;;22.88;9.05;;;;;;;;;;5018787;28;20053;-62
2023/04/15 07:24:43;;;;;;;21.77;8.40;;;;;;;;;;5011073;28;20054;-62
2023/04/15 07:27:17;;;;;;;19.30;10.70;;;;;;;;;;5015740;28;20785;-62
2023/04/15 07:29:44;;;;;;;31.80;10.18;;;;;;;;;;5017593;28;20158;-62
2023/04/15 07:32:25;;;;;;;25.90;10.55;;;;;;;;;;5011657;28;20049;-56
2023/04/15 07:34:59;;;;;;;23.30;9.85;;;;;;;;;;5014092;28;20061;-60
2023/04/15 07:37:32;;;;;;;22.33;9.88;;;;;;;;;;5016247;28;20044;-60
2023/04/15 07:39:59;;;;;;;19.83;9.82;;;;;;;;;;5014375;28;20061;-61
2023/04/15 07:42:28;;;;;;;23.48;9.50;;;;;;;;;;5011642;28;20153;-60
2023/04/15 07:45:01;;;;;;;22.52;10.07;;;;;;;;;;5013007;28;20132;-60
2023/04/15 07:47:28;;;;;;;22.80;10.40;;;;;;;;;;5012359;28;20146;-60
2023/04/15 07:50:02;;;;;;;25.40;10.45;;;;;;;;;;5014898;28;20049;-60
2023/04/15 07:52:30;;;;;;;24.23;8.95;;;;;;;;;;5010194;28;20477;-59
2023/04/15 07:54:57;;;;;;;24.52;9.95;;;;;;;;;;5014573;28;20125;-59
2023/04/15 07:57:31;;;;;;;28.67;10.32;;;;;;;;;;5012803;28;20057;-59
2023/04/15 07:59:59;;;;;;;26.23;10.43;;;;;;;;;;5012599;28;20132;-60
2023/04/15 08:02:36;;;;;;;19.25;10.05;;;;;;;;;;5015100;28;20052;-58
2023/04/15 08:05:06;;;;;;;21.80;9.80;;;;;;;;;;5014986;28;20136;-50
2023/04/15 08:07:40;;;;;;;20.17;9.40;;;;;;;;;;5013487;28;20050;-51
2023/04/15 08:10:08;;;;;;;26.45;9.82;;;;;;;;;;5012150;28;20141;-52
2023/04/15 08:12:36;;;;;;;18.85;8.93;;;;;;;;;;5008514;28;20062;-49
2023/04/15 08:15:09;;;;;;;19.30;9.38;;;;;;;;;;5009215;28;20394;-54
2023/04/15 08:17:36;;;;;;;21.55;8.68;;;;;;;;;;5011106;28;20053;-54
2023/04/15 08:20:04;;;;;;;22.08;9.15;;;;;;;;;;5015201;28;20445;-60
2023/04/15 08:22:38;;;;;;;19.23;8.82;;;;;;;;;;5005905;28;20049;-60
2023/04/15 08:25:06;;;;;;;19.65;9.05;;;;;;;;;;5014415;28;20060;-60
2023/04/15 08:27:33;;;;;;;22.42;8.80;;;;;;;;;;5016075;28;20581;-61
2023/04/15 08:30:07;;;;;;;22.85;9.07;;;;;;;;;;5016018;28;20063;-57
2023/04/15 08:32:35;;;;;;;;;;;;;;;;;;5004077;28;20049;-59
2023/04/15 08:35:15;;;;;;;21.20;9.13;;;;;;;;;;5013079;28;19928;-60
2023/04/15 08:37:42;;;;;;;19.63;9.45;;;;;;;;;;5009819;28;20141;-59
2023/04/15 08:40:16;;;;;;;22.25;9.82;;;;;;;;;;5007939;28;20059;-59
2023/04/15 08:42:45;;;;;;;20.58;9.25;;;;;;;;;;5011588;28;20053;-60
2023/04/15 08:45:19;;;;;;;24.77;8.45;;;;;;;;;;5012188;28;20413;-59
2023/04/15 08:47:48;;;;;;;21.63;9.35;;;;;;;;;;5010529;28;20041;-55
2023/04/15 08:50:22;;;;;;;16.50;8.93;;;;;;;;;;5017603;28;20056;-49
2023/04/15 08:52:49;;;;;;;21.63;9.20;;;;;;;;;;5010866;28;20150;-53
2023/04/15 08:55:16;;;;;;;17.45;8.90;;;;;;;;;;5014778;28;20050;-54
2023/04/15 08:57:50;;;;;;;20.23;9.02;;;;;;;;;;5011846;28;20072;-62
2023/04/15 09:00:17;;;;;;;;;;;;;;;;;;5012615;28;20069;-60
2023/04/15 09:02:51;;;;;;;21.60;8.20;;;;;;;;;;5010292;28;19927;-62
2023/04/15 09:05:20;;;;;;;19.38;8.35;;;;;;;;;;5013262;28;20813;-62
2023/04/15 09:07:47;;;;;;;18.48;8.18;;;;;;;;;;5007867;28;20055;-62
2023/04/15 09:10:22;;;;;;;19.77;8.77;;;;;;;;;;5012796;28;20097;-62
2023/04/15 09:12:49;;;;;;;15.90;8.20;;;;;;;;;;5010785;28;20129;-62
2023/04/15 09:15:26;;;;;;;18.90;8.00;;;;;;;;;;5011699;28;20057;-62
2023/04/15 09:17:53;;;;;;;17.73;8.85;;;;;;;;;;5013293;28;20050;-62
2023/04/15 09:20:20;;;;;;;22.60;8.90;;;;;;;;;;5007637;28;20744;-61
2023/04/15 09:22:54;;;;;;;23.50;8.55;;;;;;;;;;5007705;28;20056;-62
2023/04/15 09:25:21;;;;;;;20.33;8.57;;;;;;;;;;5008745;28;20052;-62
2023/04/15 09:27:49;;;;;;;22.67;8.02;;;;;;;;;;5013140;28;20050;-60
2023/04/15 09:30:23;;;;;;;19.92;8.27;;;;;;;;;;5008043;28;20058;-47
2023/04/15 09:32:55;;;;;;;16.25;7.97;;;;;;;;;;5007876;28;20132;-51
2023/04/15 09:35:29;;;;;;;18.25;7.45;;;;;;;;;;5007819;28;20061;-53
2023/04/15 09:38:06;;;;;;;17.38;6.82;;;;;;;;;;5017301;28;20046;-47
2023/04/15 09:40:41;;;;;;;16.98;7.60;;;;;;;;;;5013662;28;20045;-54
2023/04/15 09:43:11;;;;;;;15.20;7.25;;;;;;;;;;5015010;28;20057;-52
2023/04/15 09:45:46;;;;;;;18.50;7.53;;;;;;;;;;5010822;28;20137;-63
2023/04/15 09:48:21;;;;;;;15.82;7.20;;;;;;;;;;5007580;28;20045;-60
2023/04/15 09:50:49;;;;;;;11.55;7.00;;;;;;;;;;5008902;28;20045;-60
2023/04/15 09:53:24;;;;;;;16.50;7.07;;;;;;;;;;5008885;28;20402;-60
2023/04/15 09:55:51;;;;;;;17.25;7.03;;;;;;;;;;5010496;28;20046;-60
2023/04/15 09:58:22;;;;;;;19.80;7.53;;;;;;;;;;5006312;28;20081;-59
2023/04/15 10:00:57;;;;;;;20.23;6.68;;;;;;;;;;5009048;28;20037;-59
2023/04/15 10:03:37;;;;;;;13.98;7.38;;;;;;;;;;5006761;28;20408;-62
2023/04/15 10:06:11;;;;;;;17.95;7.15;;;;;;;;;;5011380;28;20092;-62
2023/04/15 10:08:40;;;;;;;17.02;7.00;;;;;;;;;;5013268;28;20050;-63
2023/04/15 10:11:15;;;;;;;14.48;6.97;;;;;;;;;;5009857;28;20145;-63
2023/04/15 10:13:42;;;;;;;13.38;7.20;;;;;;;;;;5009279;28;20048;-63
2023/04/15 10:16:16;;;;;;;18.25;7.55;;;;;;;;;;5010484;28;20049;-63
2023/04/15 10:18:53;;;;;;;18.17;7.28;;;;;;;;;;4993528;28;20046;-63
2023/04/15 10:21:22;;;;;;;15.85;7.10;;;;;;;;;;5010457;28;20060;-59
2023/04/15 10:23:56;;;;;;;17.08;6.80;;;;;;;;;;5012399;28;20049;-60
2023/04/15 10:26:24;;;;;;;15.10;7.43;;;;;;;;;;5012295;28;20139;-62
2023/04/15 10:28:52;;;;;;;12.68;7.68;;;;;;;;;;4997198;28;20050;-62
2023/04/15 10:31:26;;;;;;;19.23;7.18;;;;;;;;;;5009522;28;20042;-62
2023/04/15 10:33:53;;;;;;;13.77;6.97;;;;;;;;;;5013146;28;20113;-62
2023/04/15 10:36:34;;;;;;;13.65;6.78;;;;;;;;;;5011173;28;20100;-62
2023/04/15 10:39:01;;;;;;;15.70;7.05;;;;;;;;;;5012960;28;20406;-62
2023/04/15 10:41:36;;;;;;;16.42;7.30;;;;;;;;;;5010824;28;20049;-62
2023/04/15 10:44:04;;;;;;;18.90;6.78;;;;;;;;;;5008783;28;20424;-57
2023/04/15 10:46:37;;;;;;;16.85;6.75;;;;;;;;;;5002357;28;20393;-54
2023/04/15 10:49:15;;;;;;;12.95;6.55;;;;;;;;;;5012041;28;20045;-58
2023/04/15 10:51:44;;;;;;;17.67;7.10;;;;;;;;;;5014765;28;20124;-56
2023/04/15 10:54:24;;;;;;;24.30;7.15;;;;;;;;;;5014409;28;20132;-52
2023/04/15 10:56:52;;;;;;;19.88;7.60;;;;;;;;;;5016974;28;20163;-53
2023/04/15 10:59:29;;;;;;;16.85;7.18;;;;;;;;;;5014560;28;20037;-53
2023/04/15 11:02:03;;;;;;;18.45;6.90;;;;;;;;;;5012708;28;20048;-55
2023/04/15 11:04:59;;;;;;;15.55;6.45;;;;;;;;;;5019511;28;20046;-52
2023/04/15 11:07:33;;;;;;;13.77;6.57;;;;;;;;;;5014029;28;20045;-54
2023/04/15 11:10:01;;;;;;;17.55;6.30;;;;;;;;;;5006803;28;20053;-60
2023/04/15 11:12:35;;;;;;;20.83;6.72;;;;;;;;;;5013957;28;20053;-60
2023/04/15 11:15:03;;;;;;;;;;;;;;;;;;5018111;28;20056;-60
2023/04/15 11:17:30;;;;;;;15.48;6.47;;;;;;;;;;5016089;28;19936;-58
2023/04/15 11:20:05;;;;;;;15.65;6.93;;;;;;;;;;5015543;28;20072;-59
2023/04/15 11:22:46;;;;;;;15.80;6.82;;;;;;;;;;5013339;28;20038;-60
2023/04/15 11:25:27;;;;;;;13.13;5.80;;;;;;;;;;5013902;28;20421;-58
2023/04/15 11:28:01;;;;;;;13.60;6.73;;;;;;;;;;5006638;28;20049;-62
2023/04/15 11:30:29;;;;;;;;;;;;;;;;;;5015588;28;20125;-63
2023/04/15 11:33:12;;;;;;;11.77;6.25;;;;;;;;;;5005733;28;19926;-63
2023/04/15 11:35:47;;;;;;;14.45;6.13;;;;;;;;;;4999029;28;20113;-63
2023/04/15 11:38:21;;;;;;;18.25;6.55;;;;;;;;;;4997098;28;20054;-57
2023/04/15 11:40:55;;;;;;;11.93;6.00;;;;;;;;;;4998992;28;20049;-63
2023/04/15 11:43:31;;;;;;;14.02;6.00;;;;;;;;;;4998003;28;20061;-63
2023/04/15 11:46:00;;;;;;;14.88;5.50;;;;;;;;;;4998115;28;20046;-63
2023/04/15 11:48:31;;;;;;;14.52;6.22;;;;;;;;;;4995090;28;20173;-63
2023/04/15 11:51:06;;;;;;;13.18;6.15;;;;;;;;;;4996842;28;20042;-64
2023/04/15 11:53:38;;;;;;;11.02;5.18;;;;;;;;;;4999181;28;20053;-63
2023/04/15 11:56:16;;;;;;;13.63;5.90;;;;;;;;;;4999608;28;20050;-62
2023/04/15 11:58:45;;;;;;;13.00;5.22;;;;;;;;;;4988961;28;20796;-62
2023/04/15 12:01:18;;;;;;;10.93;5.75;;;;;;;;;;4992990;28;20046;-63
2023/04/15 12:03:46;;;;;;;18.25;5.88;;;;;;;;;;4999423;28;20136;-62
2023/04/15 12:06:15;;;;;;;15.90;5.70;;;;;;;;;;4996907;28;20058;-60
2023/04/15 12:08:55;;;;;;;9.88;5.70;;;;;;;;;;4993876;28;20138;-59
2023/04/15 12:11:28;;;;;;;13.40;5.32;;;;;;;;;;4998409;28;20042;-59
2023/04/15 12:14:07;;;;;;;11.80;5.32;;;;;;;;;;4998187;28;20534;-58
2023/04/15 12:16:35;;;;;;;11.48;5.20;;;;;;;;;;4995551;28;21256;-58
2023/04/15 12:19:35;;;;;;;15.65;5.32;;;;;;;;;;4995919;28;20057;-58
2023/04/15 12:22:03;;;;;;;12.70;5.07;;;;;;;;;;4990524;28;20417;-59
2023/04/15 12:24:36;;;;;;;12.60;5.47;;;;;;;;;;4997261;28;20619;-47
2023/04/15 12:27:04;;;;;;;12.77;4.50;;;;;;;;;;4992860;28;20135;-55
2023/04/15 12:29:39;;;;;;;12.30;5.10;;;;;;;;;;4995970;28;20054;-56
2023/04/15 12:32:08;;;;;;;12.63;5.40;;;;;;;;;;4996632;28;20050;-51
2023/04/15 12:34:49;;;;;;;11.00;4.93;;;;;;;;;;5011827;28;20531;-54
2023/04/15 12:37:23;;;;;;;15.88;5.88;;;;;;;;;;5014882;28;20136;-56
2023/04/15 12:39:56;;;;;;;11.77;5.72;;;;;;;;;;5016219;28;20408;-57
2023/04/15 12:42:24;;;;;;;15.68;5.78;;;;;;;;;;5012891;28;20154;-56
2023/04/15 12:44:57;;;;;;;8.43;4.50;;;;;;;;;;5012685;28;20046;-54
2023/04/15 12:47:24;;;;;;;13.75;5.47;;;;;;;;;;5009441;28;20375;-56
2023/04/15 12:49:52;;;;;;;14.52;5.50;;;;;;;;;;5016473;28;20045;-55
2023/04/15 12:52:26;;;;;;;8.52;4.88;;;;;;;;;;5016154;28;20042;-62
2023/04/15 12:54:53;;;;;;;12.43;5.10;;;;;;;;;;5013851;28;20131;-62
2023/04/15 12:57:27;;;;;;;11.43;4.70;;;;;;;;;;5012417;28;20064;-62
2023/04/15 12:59:54;;;;;;;9.43;4.60;;;;;;;;;;5014186;28;20037;-62
2023/04/15 13:02:24;;;;;;;;;;;;;;;;;;5018458;28;20496;-62
2023/04/15 13:04:57;;;;;;;12.93;5.35;;;;;;;;;;5018452;28;19979;-62
2023/04/15 13:07:24;;;;;;;9.02;4.10;;;;;;;;;;5016911;28;20140;-62
2023/04/15 13:09:58;;;;;;;12.23;4.50;;;;;;;;;;5014716;28;20470;-54
2023/04/15 13:12:26;;;;;;;9.98;4.53;;;;;;;;;;5016016;28;20056;-57
2023/04/15 13:14:53;;;;;;;10.73;4.22;;;;;;;;;;5017644;28;20055;-56
2023/04/15 13:17:29;;;;;;;9.65;4.25;;;;;;;;;;5020465;28;20049;-57
2023/04/15 13:19:57;;;;;;;8.80;4.80;;;;;;;;;;5014674;28;20460;-63
2023/04/15 13:22:30;;;;;;;11.43;4.90;;;;;;;;;;5012875;28;20041;-49
2023/04/15 13:24:57;;;;;;;9.88;4.32;;;;;;;;;;5013029;28;20336;-60
2023/04/15 13:27:25;;;;;;;9.77;4.18;;;;;;;;;;5015770;28;20064;-59
2023/04/15 13:30:13;;;;;;;10.40;4.00;;;;;;;;;;5014660;28;20493;-59
2023/04/15 13:32:47;;;;;;;8.88;4.18;;;;;;;;;;5016804;28;20493;-60
2023/04/15 13:35:27;;;;;;;10.50;4.65;;;;;;;;;;5015896;28;20065;-59
2023/04/15 13:37:55;;;;;;;11.52;4.35;;;;;;;;;;5014755;28;20056;-60
2023/04/15 13:40:28;;;;;;;7.60;3.88;;;;;;;;;;5016771;28;20108;-61
2023/04/15 13:43:02;;;;;;;6.70;3.90;;;;;;;;;;5015672;28;20045;-60
2023/04/15 13:45:46;;;;;;;9.02;4.05;;;;;;;;;;5006769;28;20713;-60
2023/04/15 13:48:15;;;;;;;11.38;4.35;;;;;;;;;;5011122;28;20547;-60
2023/04/15 13:50:49;;;;;;;13.82;4.82;;;;;;;;;;5014367;28;20053;-63
2023/04/15 13:53:21;;;;;;;10.30;4.55;;;;;;;;;;5017972;28;20049;-60
2023/04/15 13:56:05;;;;;;;12.35;4.80;;;;;;;;;;5015825;28;20050;-60
2023/04/15 13:58:39;;;;;;;10.95;5.00;;;;;;;;;;5015124;28;20049;-60
2023/04/15 14:01:07;;;;;;;7.55;3.92;;;;;;;;;;5013071;28;20046;-60
2023/04/15 14:03:35;;;;;;;12.05;4.18;;;;;;;;;;5012178;28;20276;-59
2023/04/15 14:06:09;;;;;;;12.82;4.03;;;;;;;;;;5018473;28;20104;-60
2023/04/15 14:08:36;;;;;;;;;;;;;;;;;;5019695;28;20453;-60
2023/04/15 14:11:03;;;;;;;12.20;4.50;;;;;;;;;;5012428;28;19929;-59
2023/04/15 14:13:37;;;;;;;8.80;4.00;;;;;;;;;;5018981;28;20390;-60
2023/04/15 14:16:04;;;;;;;8.82;4.68;;;;;;;;;;5015948;28;20332;-60
2023/04/15 14:18:39;;;;;;;8.75;4.18;;;;;;;;;;5019643;28;20125;-58
2023/04/15 14:21:06;;;;;;;10.05;4.35;;;;;;;;;;5014908;28;20133;-62
2023/04/15 14:23:33;;;;;;;13.98;5.10;;;;;;;;;;5017804;28;20050;-62
2023/04/15 14:26:07;;;;;;;9.73;4.47;;;;;;;;;;5017682;28;20041;-62
2023/04/15 14:28:34;;;;;;;7.15;4.30;;;;;;;;;;5002038;28;20042;-62
2023/04/15 14:31:08;;;;;;;11.68;5.25;;;;;;;;;;5012560;28;20058;-62
2023/04/15 14:33:35;;;;;;;10.15;4.70;;;;;;;;;;5015651;28;20050;-61
2023/04/15 14:36:16;;;;;;;11.25;4.80;;;;;;;;;;5017878;28;20520;-62
2023/04/15 14:38:43;;;;;;;6.75;3.65;;;;;;;;;;5003158;28;20129;-62
2023/04/15 14:41:17;;;;;;;9.95;4.43;;;;;;;;;;5014149;28;20072;-62
2023/04/15 14:43:44;;;;;;;6.72;3.97;;;;;;;;;;5013650;28;20452;-62
2023/04/15 14:46:13;;;;;;;7.68;4.53;;;;;;;;;;5019981;28;20481;-60
2023/04/15 14:48:46;;;;;;;10.60;5.05;;;;;;;;;;5003620;28;20437;-60
2023/04/15 14:51:15;;;;;;;6.93;4.60;;;;;;;;;;5015818;28;20050;-60
2023/04/15 14:53:48;;;;;;;11.38;4.53;;;;;;;;;;5016034;28;20068;-58
2023/04/15 14:56:15;;;;;;;12.55;5.45;;;;;;;;;;5015384;28;20140;-60